»·PEaware :: N476WK KSBA-KBUR

N476WK :: KSBA-KBUR

FLIGHT INFORMATION

Flight Status: Arrived
Operator: Privately registered:
United States
More flights under this callsign
Pilot: Kris Z. (17393)
Aircraft: CESSNA 172 SKYHAWK
(C172)
More flights by this aircraft type
Origin: KSBA Santa Barbara Mun
United States
Destination: KBUR Bob Hope-Burbank
United States
More flights between these airports :: More routes between these airports
Route: +
File this flight plan on PilotEdge
Remarks: CAT8
Altitude:
(Current/Filed)
0ft
Speed:
(Current/Filed)
0kts
Departed: 10-Jan-18 08:24 PM
Arrived: 10-Jan-18 09:21 PM
Distance/Time
Traveled:
74nm/0:57
Distance/Time
To Go:
Arrived

Flight Plot

Page will automatically refresh every two minutes.


Map Options




Map Legend


Flown Route
Filed Route
Departure Airport
Arrival Airport
Navaid (VOR, NDB)
Fix

Horizontal Profiles

Position Reports

Time Latitude Longitude Heading Altitude Ground
Speed
10-Jan-18 20:21 34.422664 -119.835593 341 10ft 0kts
10-Jan-18 20:22 34.422664 -119.835593 341 10ft 0kts
10-Jan-18 20:23 34.422664 -119.835593 341 10ft 0kts
10-Jan-18 20:24 34.422776 -119.837191 318 13ft 7kts
10-Jan-18 20:25 34.425576 -119.838001 342 13ft 14kts
10-Jan-18 20:26 34.426756 -119.835503 88 10ft 12kts
10-Jan-18 20:27 34.427074 -119.834619 358 10ft 0kts
10-Jan-18 20:28 34.427074 -119.834619 358 10ft 0kts
10-Jan-18 20:29 34.427897 -119.835631 267 10ft 27kts
10-Jan-18 20:30 34.425462 -119.859159 261 784ft 78kts
10-Jan-18 20:31 34.421086 -119.886881 259 1425ft 93kts
10-Jan-18 20:32 34.414110 -119.920008 268 1365ft 102kts
10-Jan-18 20:33 34.411757 -119.953738 268 1260ft 97kts
10-Jan-18 20:34 34.409694 -119.985915 272 1172ft 93kts
10-Jan-18 20:35 34.406558 -120.016155 268 1201ft 85kts
10-Jan-18 20:36 34.404251 -120.044180 266 1241ft 84kts
10-Jan-18 20:37 34.412001 -120.059026 45 1585ft 76kts
10-Jan-18 20:38 34.420713 -120.037134 65 2339ft 69kts
10-Jan-18 20:39 34.425351 -120.015099 62 3212ft 66kts
10-Jan-18 20:40 34.432956 -119.994730 58 4026ft 67kts
10-Jan-18 20:41 34.440535 -119.974227 53 4787ft 68kts
10-Jan-18 20:42 34.447140 -119.952598 56 5532ft 70kts
10-Jan-18 20:43 34.450400 -119.928941 42 6235ft 65kts
10-Jan-18 20:44 34.459603 -119.909427 39 6882ft 67kts
10-Jan-18 20:45 34.468496 -119.888913 41 7424ft 74kts
10-Jan-18 20:46 34.482244 -119.861935 53 7425ft 114kts
10-Jan-18 20:47 34.493843 -119.824156 60 7293ft 121kts
10-Jan-18 20:48 34.501638 -119.784745 66 7354ft 119kts
10-Jan-18 20:49 34.504556 -119.744015 88 7405ft 129kts
10-Jan-18 20:50 34.492392 -119.702028 94 7505ft 129kts
10-Jan-18 20:51 34.483273 -119.659618 91 7564ft 130kts
10-Jan-18 20:52 34.475143 -119.616917 87 7628ft 129kts
10-Jan-18 20:53 34.468010 -119.573886 90 7629ft 134kts
10-Jan-18 20:54 34.459680 -119.529472 87 7532ft 134kts
10-Jan-18 20:55 34.452149 -119.484865 92 7446ft 135kts
10-Jan-18 20:56 34.441133 -119.441330 94 7414ft 134kts
10-Jan-18 20:57 34.432077 -119.398496 92 7493ft 130kts
10-Jan-18 20:58 34.423825 -119.355807 88 7544ft 128kts
10-Jan-18 20:59 34.417074 -119.313945 93 7585ft 131kts
10-Jan-18 21:00 34.406556 -119.271499 91 7632ft 130kts
10-Jan-18 21:01 34.403279 -119.228099 79 7562ft 128kts
10-Jan-18 21:02 34.401820 -119.184668 84 7499ft 130kts
10-Jan-18 21:03 34.395935 -119.140828 91 7448ft 133kts
10-Jan-18 21:04 34.386770 -119.097262 92 7402ft 133kts
10-Jan-18 21:05 34.378955 -119.053648 89 7401ft 129kts
10-Jan-18 21:06 34.372731 -119.011625 90 7536ft 126kts
10-Jan-18 21:07 34.363519 -118.969179 94 7535ft 132kts
10-Jan-18 21:08 34.355787 -118.925954 89 7498ft 131kts
10-Jan-18 21:09 34.346939 -118.882697 94 7473ft 132kts
10-Jan-18 21:10 34.335651 -118.840037 103 7467ft 134kts
10-Jan-18 21:11 34.318476 -118.799468 111 7470ft 137kts
10-Jan-18 21:12 34.299980 -118.760687 105 7405ft 131kts
10-Jan-18 21:13 34.286586 -118.722052 98 7414ft 123kts
10-Jan-18 21:14 34.273010 -118.683457 105 7257ft 130kts
10-Jan-18 21:15 34.255627 -118.644542 107 6737ft 132kts
10-Jan-18 21:16 34.241557 -118.605697 88 6200ft 117kts
10-Jan-18 21:17 34.234238 -118.567328 92 5655ft 119kts
10-Jan-18 21:18 34.226009 -118.528617 92 5118ft 119kts
10-Jan-18 21:19 34.215873 -118.490516 100 4621ft 121kts
10-Jan-18 21:20 34.204211 -118.453149 100 4144ft 119kts
10-Jan-18 21:21 34.194580 -118.415975 96 3581ft 114kts
10-Jan-18 21:22 34.187121 -118.380282 138 2635ft 107kts
10-Jan-18 21:23 34.173731 -118.396492 293 1968ft 86kts
10-Jan-18 21:24 34.189343 -118.404785 11 1798ft 60kts
10-Jan-18 21:25 34.198117 -118.388522 88 1461ft 70kts
10-Jan-18 21:26 34.197859 -118.366035 88 727ft 58kts
10-Jan-18 21:27 34.198502 -118.356452 22 709ft 10kts
10-Jan-18 21:28 34.198851 -118.356199 352 709ft 4kts
10-Jan-18 21:29 34.198970 -118.362459 268 722ft 14kts
10-Jan-18 21:30 34.199409 -118.363556 291 723ft 0kts
10-Jan-18 21:31 34.199409 -118.363556 291 723ft 0kts

Navigation Log

Ident Type
1. KSBA Airport
2. KBUR Airport